sensor_id;sensor_type;location;lat;lon;timestamp;P1;durP1;ratioP1;P2;durP2;ratioP2
20988;SDS011;10653;47.052;15.410;2022-12-29T00:00:51;32.58;;;25.48;;
20988;SDS011;10653;47.052;15.410;2022-12-29T00:03:17;36.47;;;28.10;;
20988;SDS011;10653;47.052;15.410;2022-12-29T00:05:43;29.52;;;24.70;;
20988;SDS011;10653;47.052;15.410;2022-12-29T00:08:09;30.20;;;25.25;;
20988;SDS011;10653;47.052;15.410;2022-12-29T00:10:35;33.08;;;26.70;;
20988;SDS011;10653;47.052;15.410;2022-12-29T00:13:01;30.75;;;25.90;;
20988;SDS011;10653;47.052;15.410;2022-12-29T00:15:45;32.53;;;25.73;;
20988;SDS011;10653;47.052;15.410;2022-12-29T00:18:11;29.73;;;24.83;;
20988;SDS011;10653;47.052;15.410;2022-12-29T00:20:37;35.03;;;26.90;;
20988;SDS011;10653;47.052;15.410;2022-12-29T00:23:22;32.42;;;25.80;;
20988;SDS011;10653;47.052;15.410;2022-12-29T00:26:16;27.30;;;23.42;;
20988;SDS011;10653;47.052;15.410;2022-12-29T00:29:01;32.42;;;26.85;;
20988;SDS011;10653;47.052;15.410;2022-12-29T00:31:46;32.95;;;25.38;;
20988;SDS011;10653;47.052;15.410;2022-12-29T00:34:30;32.80;;;25.73;;
20988;SDS011;10653;47.052;15.410;2022-12-29T00:37:15;29.25;;;26.08;;
20988;SDS011;10653;47.052;15.410;2022-12-29T00:39:41;31.17;;;25.98;;
20988;SDS011;10653;47.052;15.410;2022-12-29T00:42:26;30.00;;;26.02;;
20988;SDS011;10653;47.052;15.410;2022-12-29T00:45:10;33.63;;;25.38;;
20988;SDS011;10653;47.052;15.410;2022-12-29T00:47:36;26.40;;;23.58;;
20988;SDS011;10653;47.052;15.410;2022-12-29T00:50:02;28.02;;;24.50;;
20988;SDS011;10653;47.052;15.410;2022-12-29T00:52:28;31.35;;;26.52;;
20988;SDS011;10653;47.052;15.410;2022-12-29T00:54:54;33.03;;;24.40;;
20988;SDS011;10653;47.052;15.410;2022-12-29T00:57:21;29.35;;;24.83;;
20988;SDS011;10653;47.052;15.410;2022-12-29T00:59:47;29.30;;;24.02;;
20988;SDS011;10653;47.052;15.410;2022-12-29T01:02:13;30.10;;;23.65;;
20988;SDS011;10653;47.052;15.410;2022-12-29T01:04:39;31.00;;;26.13;;
20988;SDS011;10653;47.052;15.410;2022-12-29T01:07:05;29.02;;;24.85;;
20988;SDS011;10653;47.052;15.410;2022-12-29T01:09:31;29.02;;;25.33;;
20988;SDS011;10653;47.052;15.410;2022-12-29T01:12:16;31.20;;;24.25;;
20988;SDS011;10653;47.052;15.410;2022-12-29T01:15:02;28.88;;;22.85;;
20988;SDS011;10653;47.052;15.410;2022-12-29T01:17:28;29.65;;;23.40;;
20988;SDS011;10653;47.052;15.410;2022-12-29T01:19:54;28.95;;;23.15;;
20988;SDS011;10653;47.052;15.410;2022-12-29T01:22:20;30.90;;;23.50;;
20988;SDS011;10653;47.052;15.410;2022-12-29T01:24:46;28.50;;;22.85;;
20988;SDS011;10653;47.052;15.410;2022-12-29T01:27:12;28.30;;;23.33;;
20988;SDS011;10653;47.052;15.410;2022-12-29T01:29:38;25.23;;;22.50;;
20988;SDS011;10653;47.052;15.410;2022-12-29T01:32:04;26.27;;;23.48;;
20988;SDS011;10653;47.052;15.410;2022-12-29T01:34:30;26.40;;;23.45;;
20988;SDS011;10653;47.052;15.410;2022-12-29T01:36:56;25.75;;;23.02;;
20988;SDS011;10653;47.052;15.410;2022-12-29T01:39:22;29.05;;;23.70;;
20988;SDS011;10653;47.052;15.410;2022-12-29T01:41:48;27.08;;;23.40;;
20988;SDS011;10653;47.052;15.410;2022-12-29T01:46:59;29.25;;;23.65;;
20988;SDS011;10653;47.052;15.410;2022-12-29T01:49:26;31.02;;;24.98;;
20988;SDS011;10653;47.052;15.410;2022-12-29T01:52:00;34.53;;;27.20;;
20988;SDS011;10653;47.052;15.410;2022-12-29T01:54:28;29.77;;;25.27;;
20988;SDS011;10653;47.052;15.410;2022-12-29T01:56:56;29.65;;;24.05;;
20988;SDS011;10653;47.052;15.410;2022-12-29T01:59:24;32.95;;;26.55;;
20988;SDS011;10653;47.052;15.410;2022-12-29T02:01:53;32.63;;;25.75;;
20988;SDS011;10653;47.052;15.410;2022-12-29T02:04:19;41.20;;;29.25;;
20988;SDS011;10653;47.052;15.410;2022-12-29T02:06:47;33.13;;;27.27;;
20988;SDS011;10653;47.052;15.410;2022-12-29T02:09:15;30.02;;;24.17;;
20988;SDS011;10653;47.052;15.410;2022-12-29T02:11:41;32.78;;;26.65;;
20988;SDS011;10653;47.052;15.410;2022-12-29T02:14:08;33.90;;;24.63;;
20988;SDS011;10653;47.052;15.410;2022-12-29T02:24:33;35.25;;;26.80;;
20988;SDS011;10653;47.052;15.410;2022-12-29T02:32:03;28.80;;;22.83;;
20988;SDS011;10653;47.052;15.410;2022-12-29T02:37:05;34.77;;;27.57;;
20988;SDS011;10653;47.052;15.410;2022-12-29T02:47:51;28.40;;;22.73;;
20988;SDS011;10653;47.052;15.410;2022-12-29T02:50:30;32.47;;;26.65;;
20988;SDS011;10653;47.052;15.410;2022-12-29T02:52:59;33.00;;;27.02;;
20988;SDS011;10653;47.052;15.410;2022-12-29T02:55:26;34.10;;;26.42;;
20988;SDS011;10653;47.052;15.410;2022-12-29T03:00:38;30.95;;;24.30;;
20988;SDS011;10653;47.052;15.410;2022-12-29T03:08:23;27.52;;;23.27;;
20988;SDS011;10653;47.052;15.410;2022-12-29T03:11:05;27.92;;;23.00;;
20988;SDS011;10653;47.052;15.410;2022-12-29T03:13:52;33.22;;;26.23;;
20988;SDS011;10653;47.052;15.410;2022-12-29T03:16:47;29.92;;;25.70;;
20988;SDS011;10653;47.052;15.410;2022-12-29T03:19:23;33.25;;;26.25;;
20988;SDS011;10653;47.052;15.410;2022-12-29T03:24:39;26.33;;;21.20;;
20988;SDS011;10653;47.052;15.410;2022-12-29T03:27:06;26.88;;;22.88;;
20988;SDS011;10653;47.052;15.410;2022-12-29T03:29:42;25.40;;;21.90;;
20988;SDS011;10653;47.052;15.410;2022-12-29T03:32:09;30.48;;;23.75;;
20988;SDS011;10653;47.052;15.410;2022-12-29T03:34:37;32.75;;;24.60;;
20988;SDS011;10653;47.052;15.410;2022-12-29T03:37:11;27.52;;;24.50;;
20988;SDS011;10653;47.052;15.410;2022-12-29T03:39:38;36.65;;;25.70;;
20988;SDS011;10653;47.052;15.410;2022-12-29T03:42:05;26.95;;;22.70;;
20988;SDS011;10653;47.052;15.410;2022-12-29T03:44:36;29.27;;;25.85;;
20988;SDS011;10653;47.052;15.410;2022-12-29T03:47:02;31.10;;;26.10;;
20988;SDS011;10653;47.052;15.410;2022-12-29T03:49:28;27.40;;;23.67;;
20988;SDS011;10653;47.052;15.410;2022-12-29T03:51:55;28.42;;;25.30;;
20988;SDS011;10653;47.052;15.410;2022-12-29T03:54:21;23.45;;;20.52;;
20988;SDS011;10653;47.052;15.410;2022-12-29T03:56:47;26.33;;;22.08;;
20988;SDS011;10653;47.052;15.410;2022-12-29T03:59:13;24.00;;;20.27;;
20988;SDS011;10653;47.052;15.410;2022-12-29T04:01:39;26.38;;;21.80;;
20988;SDS011;10653;47.052;15.410;2022-12-29T04:04:05;26.45;;;21.10;;
20988;SDS011;10653;47.052;15.410;2022-12-29T04:06:31;28.27;;;21.70;;
20988;SDS011;10653;47.052;15.410;2022-12-29T04:08:57;27.83;;;21.23;;
20988;SDS011;10653;47.052;15.410;2022-12-29T04:11:23;28.52;;;22.67;;
20988;SDS011;10653;47.052;15.410;2022-12-29T04:13:49;26.90;;;21.48;;
20988;SDS011;10653;47.052;15.410;2022-12-29T04:16:15;26.80;;;22.63;;
20988;SDS011;10653;47.052;15.410;2022-12-29T04:18:41;24.63;;;20.75;;
20988;SDS011;10653;47.052;15.410;2022-12-29T04:21:07;26.10;;;22.77;;
20988;SDS011;10653;47.052;15.410;2022-12-29T04:23:34;27.90;;;22.73;;
20988;SDS011;10653;47.052;15.410;2022-12-29T04:26:01;25.67;;;20.80;;
20988;SDS011;10653;47.052;15.410;2022-12-29T04:28:27;26.98;;;21.75;;
20988;SDS011;10653;47.052;15.410;2022-12-29T04:30:53;27.30;;;20.58;;
20988;SDS011;10653;47.052;15.410;2022-12-29T04:33:19;26.48;;;22.13;;
20988;SDS011;10653;47.052;15.410;2022-12-29T04:35:46;25.38;;;20.95;;
20988;SDS011;10653;47.052;15.410;2022-12-29T04:38:12;27.83;;;20.27;;
20988;SDS011;10653;47.052;15.410;2022-12-29T04:40:39;22.88;;;18.35;;
20988;SDS011;10653;47.052;15.410;2022-12-29T04:43:05;22.65;;;19.83;;
20988;SDS011;10653;47.052;15.410;2022-12-29T04:45:31;23.83;;;18.98;;
20988;SDS011;10653;47.052;15.410;2022-12-29T04:47:57;22.25;;;18.40;;
20988;SDS011;10653;47.052;15.410;2022-12-29T04:50:23;23.95;;;18.58;;
20988;SDS011;10653;47.052;15.410;2022-12-29T04:52:49;24.88;;;19.70;;
20988;SDS011;10653;47.052;15.410;2022-12-29T04:55:15;20.40;;;18.23;;
20988;SDS011;10653;47.052;15.410;2022-12-29T04:57:41;22.48;;;18.80;;
20988;SDS011;10653;47.052;15.410;2022-12-29T05:00:08;24.05;;;18.30;;
20988;SDS011;10653;47.052;15.410;2022-12-29T05:02:34;24.10;;;20.27;;
20988;SDS011;10653;47.052;15.410;2022-12-29T05:05:00;22.65;;;17.42;;
20988;SDS011;10653;47.052;15.410;2022-12-29T05:07:26;22.70;;;18.80;;
20988;SDS011;10653;47.052;15.410;2022-12-29T05:09:52;22.65;;;18.70;;
20988;SDS011;10653;47.052;15.410;2022-12-29T05:12:18;23.50;;;19.40;;
20988;SDS011;10653;47.052;15.410;2022-12-29T05:14:44;21.67;;;18.63;;
20988;SDS011;10653;47.052;15.410;2022-12-29T05:17:10;26.73;;;20.85;;
20988;SDS011;10653;47.052;15.410;2022-12-29T05:19:36;24.00;;;18.65;;
20988;SDS011;10653;47.052;15.410;2022-12-29T05:22:03;21.27;;;19.02;;
20988;SDS011;10653;47.052;15.410;2022-12-29T05:24:29;21.30;;;18.58;;
20988;SDS011;10653;47.052;15.410;2022-12-29T05:26:55;25.02;;;19.38;;
20988;SDS011;10653;47.052;15.410;2022-12-29T05:29:21;23.42;;;19.67;;
20988;SDS011;10653;47.052;15.410;2022-12-29T05:31:47;25.40;;;20.38;;
20988;SDS011;10653;47.052;15.410;2022-12-29T05:34:13;23.98;;;20.77;;
20988;SDS011;10653;47.052;15.410;2022-12-29T05:36:39;22.73;;;19.98;;
20988;SDS011;10653;47.052;15.410;2022-12-29T05:39:05;25.17;;;20.52;;
20988;SDS011;10653;47.052;15.410;2022-12-29T05:41:32;22.25;;;19.20;;
20988;SDS011;10653;47.052;15.410;2022-12-29T05:43:59;25.17;;;20.10;;
20988;SDS011;10653;47.052;15.410;2022-12-29T05:46:25;23.70;;;19.00;;
20988;SDS011;10653;47.052;15.410;2022-12-29T05:48:51;21.48;;;19.02;;
20988;SDS011;10653;47.052;15.410;2022-12-29T05:51:17;23.70;;;19.63;;
20988;SDS011;10653;47.052;15.410;2022-12-29T05:53:43;20.15;;;18.05;;
20988;SDS011;10653;47.052;15.410;2022-12-29T05:56:09;21.23;;;18.40;;
20988;SDS011;10653;47.052;15.410;2022-12-29T05:58:35;24.30;;;19.52;;
20988;SDS011;10653;47.052;15.410;2022-12-29T06:01:01;24.33;;;18.90;;
20988;SDS011;10653;47.052;15.410;2022-12-29T06:03:27;28.67;;;24.27;;
20988;SDS011;10653;47.052;15.410;2022-12-29T06:05:53;34.85;;;28.42;;
20988;SDS011;10653;47.052;15.410;2022-12-29T06:08:19;32.22;;;28.60;;
20988;SDS011;10653;47.052;15.410;2022-12-29T06:10:45;32.85;;;24.95;;
20988;SDS011;10653;47.052;15.410;2022-12-29T06:13:11;36.38;;;28.42;;
20988;SDS011;10653;47.052;15.410;2022-12-29T06:15:37;28.95;;;23.60;;
20988;SDS011;10653;47.052;15.410;2022-12-29T06:18:03;26.65;;;23.40;;
20988;SDS011;10653;47.052;15.410;2022-12-29T06:20:29;29.42;;;23.00;;
20988;SDS011;10653;47.052;15.410;2022-12-29T06:22:55;23.38;;;20.85;;
20988;SDS011;10653;47.052;15.410;2022-12-29T06:25:21;25.52;;;21.92;;
20988;SDS011;10653;47.052;15.410;2022-12-29T06:27:47;25.83;;;21.92;;
20988;SDS011;10653;47.052;15.410;2022-12-29T06:30:13;23.95;;;20.05;;
20988;SDS011;10653;47.052;15.410;2022-12-29T06:32:40;28.15;;;22.60;;
20988;SDS011;10653;47.052;15.410;2022-12-29T06:35:06;27.10;;;21.65;;
20988;SDS011;10653;47.052;15.410;2022-12-29T06:37:32;30.00;;;21.65;;
20988;SDS011;10653;47.052;15.410;2022-12-29T06:39:58;23.80;;;20.85;;
20988;SDS011;10653;47.052;15.410;2022-12-29T06:42:24;27.80;;;22.75;;
20988;SDS011;10653;47.052;15.410;2022-12-29T06:44:50;27.60;;;21.75;;
20988;SDS011;10653;47.052;15.410;2022-12-29T06:47:17;24.23;;;20.90;;
20988;SDS011;10653;47.052;15.410;2022-12-29T06:49:43;29.40;;;22.00;;
20988;SDS011;10653;47.052;15.410;2022-12-29T06:52:09;29.48;;;24.77;;
20988;SDS011;10653;47.052;15.410;2022-12-29T06:54:35;34.38;;;25.77;;
20988;SDS011;10653;47.052;15.410;2022-12-29T06:57:01;25.27;;;21.30;;
20988;SDS011;10653;47.052;15.410;2022-12-29T06:59:28;29.13;;;24.15;;
20988;SDS011;10653;47.052;15.410;2022-12-29T07:01:54;27.60;;;21.77;;
20988;SDS011;10653;47.052;15.410;2022-12-29T07:04:20;25.42;;;20.90;;
20988;SDS011;10653;47.052;15.410;2022-12-29T07:06:46;27.30;;;22.15;;
20988;SDS011;10653;47.052;15.410;2022-12-29T07:09:12;26.88;;;23.70;;
20988;SDS011;10653;47.052;15.410;2022-12-29T07:11:38;25.95;;;22.52;;
20988;SDS011;10653;47.052;15.410;2022-12-29T07:14:04;34.80;;;27.08;;
20988;SDS011;10653;47.052;15.410;2022-12-29T07:16:30;31.10;;;26.05;;
20988;SDS011;10653;47.052;15.410;2022-12-29T07:18:57;31.65;;;26.73;;
20988;SDS011;10653;47.052;15.410;2022-12-29T07:21:24;31.98;;;25.63;;
20988;SDS011;10653;47.052;15.410;2022-12-29T07:23:50;35.00;;;23.73;;
20988;SDS011;10653;47.052;15.410;2022-12-29T07:26:16;26.27;;;23.45;;
20988;SDS011;10653;47.052;15.410;2022-12-29T07:28:43;26.30;;;23.50;;
20988;SDS011;10653;47.052;15.410;2022-12-29T07:31:16;28.95;;;22.20;;
20988;SDS011;10653;47.052;15.410;2022-12-29T07:33:43;23.92;;;21.10;;
20988;SDS011;10653;47.052;15.410;2022-12-29T07:36:09;26.27;;;23.52;;
20988;SDS011;10653;47.052;15.410;2022-12-29T07:38:35;22.80;;;19.98;;
20988;SDS011;10653;47.052;15.410;2022-12-29T07:41:01;25.73;;;21.85;;
20988;SDS011;10653;47.052;15.410;2022-12-29T07:43:28;29.20;;;22.88;;
20988;SDS011;10653;47.052;15.410;2022-12-29T07:45:54;25.20;;;22.50;;
20988;SDS011;10653;47.052;15.410;2022-12-29T07:48:21;23.70;;;19.83;;
20988;SDS011;10653;47.052;15.410;2022-12-29T07:50:47;25.83;;;21.17;;
20988;SDS011;10653;47.052;15.410;2022-12-29T07:53:13;27.80;;;22.15;;
20988;SDS011;10653;47.052;15.410;2022-12-29T07:55:39;30.98;;;22.95;;
20988;SDS011;10653;47.052;15.410;2022-12-29T07:58:06;23.05;;;20.67;;
20988;SDS011;10653;47.052;15.410;2022-12-29T08:00:32;23.33;;;20.88;;
20988;SDS011;10653;47.052;15.410;2022-12-29T08:02:58;27.02;;;20.98;;
20988;SDS011;10653;47.052;15.410;2022-12-29T08:05:24;23.80;;;20.63;;
20988;SDS011;10653;47.052;15.410;2022-12-29T08:07:50;24.35;;;21.90;;
20988;SDS011;10653;47.052;15.410;2022-12-29T08:10:16;21.70;;;19.35;;
20988;SDS011;10653;47.052;15.410;2022-12-29T08:12:42;25.75;;;22.00;;
20988;SDS011;10653;47.052;15.410;2022-12-29T08:15:09;23.40;;;19.67;;
20988;SDS011;10653;47.052;15.410;2022-12-29T08:17:35;24.98;;;17.77;;
20988;SDS011;10653;47.052;15.410;2022-12-29T08:20:01;23.40;;;20.17;;
20988;SDS011;10653;47.052;15.410;2022-12-29T08:22:27;22.58;;;20.25;;
20988;SDS011;10653;47.052;15.410;2022-12-29T08:24:54;23.83;;;20.25;;
20988;SDS011;10653;47.052;15.410;2022-12-29T08:27:20;28.80;;;21.70;;
20988;SDS011;10653;47.052;15.410;2022-12-29T08:29:46;25.40;;;20.10;;
20988;SDS011;10653;47.052;15.410;2022-12-29T08:32:12;22.70;;;20.30;;
20988;SDS011;10653;47.052;15.410;2022-12-29T08:34:38;22.42;;;20.00;;
20988;SDS011;10653;47.052;15.410;2022-12-29T08:37:04;21.73;;;19.40;;
20988;SDS011;10653;47.052;15.410;2022-12-29T08:39:30;23.40;;;20.90;;
20988;SDS011;10653;47.052;15.410;2022-12-29T08:41:56;22.00;;;19.40;;
20988;SDS011;10653;47.052;15.410;2022-12-29T08:44:22;22.85;;;19.48;;
20988;SDS011;10653;47.052;15.410;2022-12-29T08:46:48;21.50;;;18.55;;
20988;SDS011;10653;47.052;15.410;2022-12-29T08:49:14;20.88;;;18.08;;
20988;SDS011;10653;47.052;15.410;2022-12-29T08:51:40;20.48;;;18.20;;
20988;SDS011;10653;47.052;15.410;2022-12-29T08:54:06;24.23;;;19.17;;
20988;SDS011;10653;47.052;15.410;2022-12-29T08:56:32;25.27;;;18.77;;
20988;SDS011;10653;47.052;15.410;2022-12-29T08:58:58;22.80;;;20.30;;
20988;SDS011;10653;47.052;15.410;2022-12-29T09:01:24;23.25;;;20.75;;
20988;SDS011;10653;47.052;15.410;2022-12-29T09:03:50;23.40;;;20.27;;
20988;SDS011;10653;47.052;15.410;2022-12-29T09:06:17;24.65;;;19.95;;
20988;SDS011;10653;47.052;15.410;2022-12-29T09:08:43;26.48;;;20.50;;
20988;SDS011;10653;47.052;15.410;2022-12-29T09:11:10;21.65;;;18.23;;
20988;SDS011;10653;47.052;15.410;2022-12-29T09:13:37;19.77;;;16.42;;
20988;SDS011;10653;47.052;15.410;2022-12-29T09:16:03;21.00;;;15.65;;
20988;SDS011;10653;47.052;15.410;2022-12-29T09:18:30;16.58;;;14.88;;
20988;SDS011;10653;47.052;15.410;2022-12-29T09:21:00;17.13;;;14.40;;
20988;SDS011;10653;47.052;15.410;2022-12-29T09:23:26;16.67;;;14.40;;
20988;SDS011;10653;47.052;15.410;2022-12-29T09:25:52;16.80;;;15.15;;
20988;SDS011;10653;47.052;15.410;2022-12-29T09:28:19;18.42;;;14.25;;
20988;SDS011;10653;47.052;15.410;2022-12-29T09:30:45;17.17;;;15.27;;
20988;SDS011;10653;47.052;15.410;2022-12-29T09:33:11;17.27;;;14.20;;
20988;SDS011;10653;47.052;15.410;2022-12-29T09:35:37;15.68;;;13.15;;
20988;SDS011;10653;47.052;15.410;2022-12-29T09:38:03;19.90;;;15.05;;
20988;SDS011;10653;47.052;15.410;2022-12-29T09:40:32;19.53;;;15.43;;
20988;SDS011;10653;47.052;15.410;2022-12-29T09:43:02;18.75;;;14.70;;
20988;SDS011;10653;47.052;15.410;2022-12-29T09:48:18;17.38;;;15.18;;
20988;SDS011;10653;47.052;15.410;2022-12-29T09:50:50;18.10;;;15.07;;
20988;SDS011;10653;47.052;15.410;2022-12-29T09:53:38;14.27;;;12.23;;
20988;SDS011;10653;47.052;15.410;2022-12-29T09:56:05;15.85;;;14.00;;
20988;SDS011;10653;47.052;15.410;2022-12-29T09:58:39;17.02;;;13.50;;
20988;SDS011;10653;47.052;15.410;2022-12-29T10:01:07;16.33;;;12.48;;
20988;SDS011;10653;47.052;15.410;2022-12-29T10:03:45;17.98;;;14.02;;
20988;SDS011;10653;47.052;15.410;2022-12-29T10:06:17;17.63;;;12.77;;
20988;SDS011;10653;47.052;15.410;2022-12-29T10:11:45;20.25;;;14.48;;
20988;SDS011;10653;47.052;15.410;2022-12-29T10:25:18;16.30;;;12.35;;
20988;SDS011;10653;47.052;15.410;2022-12-29T10:27:47;13.50;;;12.10;;
20988;SDS011;10653;47.052;15.410;2022-12-29T10:30:13;15.13;;;11.90;;
20988;SDS011;10653;47.052;15.410;2022-12-29T10:35:19;15.33;;;10.70;;
20988;SDS011;10653;47.052;15.410;2022-12-29T10:42:52;15.73;;;9.93;;
20988;SDS011;10653;47.052;15.410;2022-12-29T10:45:18;15.53;;;12.03;;
20988;SDS011;10653;47.052;15.410;2022-12-29T10:48:09;15.50;;;11.43;;
20988;SDS011;10653;47.052;15.410;2022-12-29T10:50:32;15.03;;;10.20;;
20988;SDS011;10653;47.052;15.410;2022-12-29T10:52:58;22.70;;;12.20;;
20988;SDS011;10653;47.052;15.410;2022-12-29T10:55:27;15.17;;;10.17;;
20988;SDS011;10653;47.052;15.410;2022-12-29T10:57:53;14.57;;;10.37;;
20988;SDS011;10653;47.052;15.410;2022-12-29T11:00:22;13.70;;;11.40;;
20988;SDS011;10653;47.052;15.410;2022-12-29T11:02:55;13.63;;;9.43;;
20988;SDS011;10653;47.052;15.410;2022-12-29T11:07:51;12.23;;;8.27;;
20988;SDS011;10653;47.052;15.410;2022-12-29T11:10:35;12.67;;;8.40;;
20988;SDS011;10653;47.052;15.410;2022-12-29T11:13:25;12.13;;;7.40;;
20988;SDS011;10653;47.052;15.410;2022-12-29T11:15:50;11.27;;;7.37;;
20988;SDS011;10653;47.052;15.410;2022-12-29T11:18:26;11.40;;;7.93;;
20988;SDS011;10653;47.052;15.410;2022-12-29T11:20:54;8.93;;;7.50;;
20988;SDS011;10653;47.052;15.410;2022-12-29T11:23:37;10.17;;;7.23;;
20988;SDS011;10653;47.052;15.410;2022-12-29T11:28:40;9.00;;;7.50;;
20988;SDS011;10653;47.052;15.410;2022-12-29T11:31:07;10.70;;;7.97;;
20988;SDS011;10653;47.052;15.410;2022-12-29T11:33:34;7.87;;;7.07;;
20988;SDS011;10653;47.052;15.410;2022-12-29T11:36:08;8.37;;;7.50;;
20988;SDS011;10653;47.052;15.410;2022-12-29T11:38:37;8.83;;;7.97;;
20988;SDS011;10653;47.052;15.410;2022-12-29T11:41:05;9.07;;;7.33;;
20988;SDS011;10653;47.052;15.410;2022-12-29T11:43:32;8.20;;;7.33;;
20988;SDS011;10653;47.052;15.410;2022-12-29T11:46:00;12.40;;;9.30;;
20988;SDS011;10653;47.052;15.410;2022-12-29T11:48:29;9.03;;;7.30;;
20988;SDS011;10653;47.052;15.410;2022-12-29T11:50:57;11.30;;;7.63;;
20988;SDS011;10653;47.052;15.410;2022-12-29T11:53:27;8.27;;;7.47;;
20988;SDS011;10653;47.052;15.410;2022-12-29T11:55:55;10.90;;;7.33;;
20988;SDS011;10653;47.052;15.410;2022-12-29T11:58:28;11.90;;;7.77;;
20988;SDS011;10653;47.052;15.410;2022-12-29T12:00:54;9.90;;;7.30;;
20988;SDS011;10653;47.052;15.410;2022-12-29T12:03:22;13.87;;;8.70;;
20988;SDS011;10653;47.052;15.410;2022-12-29T12:05:51;11.03;;;7.60;;
20988;SDS011;10653;47.052;15.410;2022-12-29T12:10:50;11.70;;;7.60;;
20988;SDS011;10653;47.052;15.410;2022-12-29T12:13:20;11.07;;;7.77;;
20988;SDS011;10653;47.052;15.410;2022-12-29T12:16:07;13.50;;;8.43;;
20988;SDS011;10653;47.052;15.410;2022-12-29T12:18:39;13.03;;;8.20;;
20988;SDS011;10653;47.052;15.410;2022-12-29T12:21:13;10.80;;;8.37;;
20988;SDS011;10653;47.052;15.410;2022-12-29T12:26:14;10.70;;;7.30;;
20988;SDS011;10653;47.052;15.410;2022-12-29T12:31:16;10.30;;;6.90;;
20988;SDS011;10653;47.052;15.410;2022-12-29T12:33:45;9.47;;;6.57;;
20988;SDS011;10653;47.052;15.410;2022-12-29T12:44:36;4.73;;;3.47;;
20988;SDS011;10653;47.052;15.410;2022-12-29T12:46:52;9.20;;;4.70;;
20988;SDS011;10653;47.052;15.410;2022-12-29T12:54:45;6.27;;;5.03;;
20988;SDS011;10653;47.052;15.410;2022-12-29T13:18:02;8.80;;;5.20;;
20988;SDS011;10653;47.052;15.410;2022-12-29T13:25:45;10.97;;;5.77;;
20988;SDS011;10653;47.052;15.410;2022-12-29T13:33:35;6.93;;;6.23;;
20988;SDS011;10653;47.052;15.410;2022-12-29T13:36:12;8.80;;;6.00;;
20988;SDS011;10653;47.052;15.410;2022-12-29T13:38:39;7.83;;;5.67;;
20988;SDS011;10653;47.052;15.410;2022-12-29T13:41:16;8.03;;;5.30;;
20988;SDS011;10653;47.052;15.410;2022-12-29T13:43:44;8.50;;;5.53;;
20988;SDS011;10653;47.052;15.410;2022-12-29T13:46:20;18.83;;;6.10;;
20988;SDS011;10653;47.052;15.410;2022-12-29T13:49:11;6.70;;;5.40;;
20988;SDS011;10653;47.052;15.410;2022-12-29T13:51:33;7.83;;;6.50;;
20988;SDS011;10653;47.052;15.410;2022-12-29T13:58:54;6.70;;;5.63;;
20988;SDS011;10653;47.052;15.410;2022-12-29T14:04:14;10.30;;;5.97;;
20988;SDS011;10653;47.052;15.410;2022-12-29T14:06:41;10.53;;;6.90;;
20988;SDS011;10653;47.052;15.410;2022-12-29T14:14:53;9.57;;;5.53;;
20988;SDS011;10653;47.052;15.410;2022-12-29T14:17:20;8.10;;;6.20;;
20988;SDS011;10653;47.052;15.410;2022-12-29T14:19:46;9.23;;;6.63;;
20988;SDS011;10653;47.052;15.410;2022-12-29T14:22:22;7.93;;;6.37;;
20988;SDS011;10653;47.052;15.410;2022-12-29T14:24:49;12.37;;;8.50;;
20988;SDS011;10653;47.052;15.410;2022-12-29T14:29:42;7.37;;;6.30;;
20988;SDS011;10653;47.052;15.410;2022-12-29T14:34:54;5.27;;;4.77;;
20988;SDS011;10653;47.052;15.410;2022-12-29T14:37:27;13.40;;;5.50;;
20988;SDS011;10653;47.052;15.410;2022-12-29T14:42:38;5.03;;;4.50;;
20988;SDS011;10653;47.052;15.410;2022-12-29T14:47:41;6.90;;;4.77;;
20988;SDS011;10653;47.052;15.410;2022-12-29T14:52:46;6.77;;;4.40;;
20988;SDS011;10653;47.052;15.410;2022-12-29T14:57:40;6.00;;;5.00;;
20988;SDS011;10653;47.052;15.410;2022-12-29T15:00:23;8.70;;;5.80;;
20988;SDS011;10653;47.052;15.410;2022-12-29T15:05:30;10.07;;;5.07;;
20988;SDS011;10653;47.052;15.410;2022-12-29T15:07:57;6.30;;;4.63;;
20988;SDS011;10653;47.052;15.410;2022-12-29T15:10:23;4.77;;;4.30;;
20988;SDS011;10653;47.052;15.410;2022-12-29T15:12:54;6.90;;;4.33;;
20988;SDS011;10653;47.052;15.410;2022-12-29T15:17:46;9.03;;;6.13;;
20988;SDS011;10653;47.052;15.410;2022-12-29T15:20:29;16.00;;;7.30;;
20988;SDS011;10653;47.052;15.410;2022-12-29T15:23:30;8.17;;;6.30;;
20988;SDS011;10653;47.052;15.410;2022-12-29T15:26:04;10.20;;;6.60;;
20988;SDS011;10653;47.052;15.410;2022-12-29T15:28:44;16.00;;;10.53;;
20988;SDS011;10653;47.052;15.410;2022-12-29T15:31:18;14.07;;;9.50;;
20988;SDS011;10653;47.052;15.410;2022-12-29T15:33:45;12.80;;;8.77;;
20988;SDS011;10653;47.052;15.410;2022-12-29T15:36:25;12.20;;;8.80;;
20988;SDS011;10653;47.052;15.410;2022-12-29T15:38:51;11.70;;;8.10;;
20988;SDS011;10653;47.052;15.410;2022-12-29T15:46:22;14.37;;;12.17;;
20988;SDS011;10653;47.052;15.410;2022-12-29T15:48:48;19.07;;;16.17;;
20988;SDS011;10653;47.052;15.410;2022-12-29T15:51:18;13.87;;;10.43;;
20988;SDS011;10653;47.052;15.410;2022-12-29T15:53:46;13.93;;;10.50;;
20988;SDS011;10653;47.052;15.410;2022-12-29T15:56:13;12.27;;;10.80;;
20988;SDS011;10653;47.052;15.410;2022-12-29T15:58:43;13.40;;;11.07;;
20988;SDS011;10653;47.052;15.410;2022-12-29T16:01:16;17.87;;;11.90;;
20988;SDS011;10653;47.052;15.410;2022-12-29T16:03:43;14.80;;;10.90;;
20988;SDS011;10653;47.052;15.410;2022-12-29T16:06:24;14.97;;;11.17;;
20988;SDS011;10653;47.052;15.410;2022-12-29T16:08:58;14.50;;;10.73;;
20988;SDS011;10653;47.052;15.410;2022-12-29T16:11:30;14.13;;;11.97;;
20988;SDS011;10653;47.052;15.410;2022-12-29T16:13:57;13.17;;;10.20;;
20988;SDS011;10653;47.052;15.410;2022-12-29T16:16:36;16.80;;;11.13;;
20988;SDS011;10653;47.052;15.410;2022-12-29T16:19:04;13.63;;;11.50;;
20988;SDS011;10653;47.052;15.410;2022-12-29T16:21:33;16.23;;;11.00;;
20988;SDS011;10653;47.052;15.410;2022-12-29T16:24:00;17.40;;;11.63;;
20988;SDS011;10653;47.052;15.410;2022-12-29T16:26:27;14.53;;;10.60;;
20988;SDS011;10653;47.052;15.410;2022-12-29T16:29:00;18.57;;;13.40;;
20988;SDS011;10653;47.052;15.410;2022-12-29T16:33:58;20.13;;;13.47;;
20988;SDS011;10653;47.052;15.410;2022-12-29T16:36:40;18.93;;;14.87;;
20988;SDS011;10653;47.052;15.410;2022-12-29T16:39:38;25.70;;;16.10;;
20988;SDS011;10653;47.052;15.410;2022-12-29T16:44:48;24.40;;;18.03;;
20988;SDS011;10653;47.052;15.410;2022-12-29T16:47:18;25.30;;;16.63;;
20988;SDS011;10653;47.052;15.410;2022-12-29T16:49:47;24.93;;;16.40;;
20988;SDS011;10653;47.052;15.410;2022-12-29T16:52:20;21.43;;;15.23;;
20988;SDS011;10653;47.052;15.410;2022-12-29T16:54:51;20.17;;;16.20;;
20988;SDS011;10653;47.052;15.410;2022-12-29T16:57:25;21.23;;;15.53;;
20988;SDS011;10653;47.052;15.410;2022-12-29T16:59:52;21.53;;;14.67;;
20988;SDS011;10653;47.052;15.410;2022-12-29T17:02:20;18.50;;;13.60;;
20988;SDS011;10653;47.052;15.410;2022-12-29T17:04:49;16.60;;;13.70;;
20988;SDS011;10653;47.052;15.410;2022-12-29T17:07:18;16.93;;;12.93;;